ADDS METAR Data INFO
IDs: Format: Raw Decoded Include TAF

Data at: 1643 UTC 23 Nov 2017

K82V 231635Z AUTO 29009G16KT 10SM CLR 15/01 A3015 RMK AO2 PWINO
K82V 231615Z AUTO 25005KT 10SM CLR 13/02 A3016 RMK AO2 PWINO
K82V 231555Z AUTO 23004KT 10SM CLR 11/02 A3016 RMK AO2 PWINO
K82V 231535Z AUTO 25007KT 10SM CLR 10/02 A3016 RMK AO2 PWINO
K82V 231515Z AUTO 10SM CLR 06/02 A3017 RMK AO2 PWINO
K82V 231455Z AUTO 10SM CLR 05/01 A3017 RMK AO2 PWINO
K82V 231435Z AUTO 10SM CLR 05/01 A3016 RMK AO2 PWINO
K82V 231415Z AUTO 10SM CLR 04/01 A3016 RMK AO2 PWINO
K82V 231355Z AUTO 10SM CLR 05/01 A3016 RMK AO2 PWINO
K82V 231335Z AUTO 10SM CLR 06/01 A3016 RMK AO2 PWINO
K82V 231315Z AUTO 10SM CLR 05/01 A3016 RMK AO2 PWINO
K82V 231255Z AUTO 10SM CLR 05/01 A3017 RMK AO2 PWINO
K82V 231235Z AUTO 10SM CLR 08/02 A3018 RMK AO2 PWINO
K82V 231215Z AUTO 10SM CLR 05/00 A3018 RMK AO2 PWINO
K82V 231155Z AUTO 10SM CLR 05/01 A3019 RMK AO2 PWINO
K82V 231135Z AUTO 10SM CLR 07/01 A3020 RMK AO2 PWINO
K82V 231115Z AUTO 10SM CLR 08/02 A3020 RMK AO2 PWINO
K82V 231055Z AUTO 25007KT 10SM CLR 07/02 A3021 RMK AO2 PWINO
K82V 231035Z AUTO 10SM CLR 06/01 A3022 RMK AO2 PWINO
K82V 231015Z AUTO 10SM CLR 09/02 A3021 RMK AO2 PWINO
K82V 230955Z AUTO 10SM CLR 07/02 A3022 RMK AO2 PWINO
K82V 230935Z AUTO 28014KT 10SM CLR 10/02 A3023 RMK AO2 PWINO
K82V 230915Z AUTO 10SM CLR 10/02 A3022 RMK AO2 PWINO
K82V 230855Z AUTO 30018KT 10SM CLR 10/02 A3022 RMK AO2 PWINO
K82V 230835Z AUTO 10SM CLR 10/02 A3022 RMK AO2 PWINO
K82V 230815Z AUTO 10SM CLR 10/02 A3021 RMK AO2 PWINO
K82V 230755Z AUTO 10SM CLR 09/02 A3020 RMK AO2 PWINO
K82V 230735Z AUTO 10SM CLR 09/02 A3022 RMK AO2 PWINO
K82V 230715Z AUTO 10SM CLR 09/02 A3022 RMK AO2 PWINO
K82V 230655Z AUTO 10SM CLR 10/02 A3022 RMK AO2 PWINO
K82V 230635Z AUTO 30019G25KT 10SM CLR 10/02 A3022 RMK AO2 PWINO
K82V 230615Z AUTO 30022G29KT 10SM CLR 11/03 A3022 RMK AO2 PWINO
K82V 230555Z AUTO 31022G29KT 10SM CLR 11/03 A3022 RMK AO2 PWINO
K82V 230535Z AUTO 10SM CLR 11/03 A3022 RMK AO2 PWINO
K82V 230515Z AUTO 30021KT 10SM CLR 11/03 A3022 RMK AO2 PWINO
K82V 230455Z AUTO 10SM CLR 11/03 A3022 RMK AO2 PWINO
K82V 230435Z AUTO 10SM CLR 11/03 A3022 RMK AO2 PWINO
K82V 230415Z AUTO 10SM CLR 11/03 A3022 RMK AO2 PWINO
K82V 230355Z AUTO 30021G28KT 10SM CLR 11/03 A3022 RMK AO2 PWINO
K82V 230335Z AUTO 30019G25KT 10SM CLR 11/03 A3022 RMK AO2 PWINO
K82V 230315Z AUTO 30020G26KT 10SM CLR 11/03 A3022 RMK AO2 PWINO
K82V 230255Z AUTO 30021G28KT 10SM CLR 11/03 A3021 RMK AO2 PWINO
K82V 230235Z AUTO 31022G28KT 10SM CLR 11/03 A3021 RMK AO2 PWINO
K82V 230215Z AUTO 32018G24KT 10SM SCT100 11/03 A3021 RMK AO2 PWINO
K82V 230155Z AUTO 32014G19KT 10SM SCT110 11/03 A3022 RMK AO2 PWINO
K82V 230135Z AUTO 32014KT 10SM SCT110 12/03 A3022 RMK AO2 PWINO
K82V 230115Z AUTO 31017G23KT 10SM SCT110 12/03 A3022 RMK AO2 PWINO
K82V 230055Z AUTO 31020G28KT 10SM BKN110 13/03 A3022 RMK AO2 PWINO
K82V 230035Z AUTO 30022G33KT 10SM BKN110 13/03 A3021 RMK AO2 PWINO
K82V 230015Z AUTO 31021G32KT 10SM BKN110 14/03 A3021 RMK AO2 PWINO
K82V 222355Z AUTO 31025G31KT 10SM OVC120 14/03 A3021 RMK AO2 PWINO
K82V 222335Z AUTO 31019G27KT 10SM OVC120 14/02 A3021 RMK AO2 PWINO
K82V 222315Z AUTO 31021G26KT 10SM OVC120 15/02 A3021 RMK AO2 PWINO
K82V 222255Z AUTO 31020G28KT 10SM BKN120 15/02 A3021 RMK AO2 PWINO
K82V 222235Z AUTO 30022G28KT 10SM SCT120 16/02 A3019 RMK AO2 PWINO
K82V 222215Z AUTO 31020G28KT 10SM CLR 16/02 A3019 RMK AO2
K82V 222155Z AUTO 31020G27KT 10SM CLR 16/02 A3018 RMK AO2
K82V 222135Z AUTO 30025G32KT 10SM CLR 17/02 A3018 RMK AO2
K82V 222115Z AUTO 30022G29KT 10SM CLR 18/02 A3018 RMK AO2
K82V 222055Z AUTO 31021G29KT 10SM CLR 17/02 A3018 RMK AO2
K82V 222035Z AUTO 30021G28KT 10SM CLR 17/02 A3019 RMK AO2
K82V 222015Z AUTO 30023G29KT 10SM CLR 17/02 A3018 RMK AO2
K82V 221955Z AUTO 30021G29KT 10SM CLR 17/02 A3019 RMK AO2
K82V 221935Z AUTO 30022G33KT 10SM CLR 17/02 A3019 RMK AO2
K82V 221915Z AUTO 31026G32KT 10SM CLR 18/02 A3020 RMK AO2
K82V 221855Z AUTO 30022G28KT 10SM CLR 18/02 A3020 RMK AO2
K82V 221835Z AUTO 31029G35KT 10SM CLR 17/01 A3021 RMK AO2
K82V 221815Z AUTO 30024G30KT 10SM CLR 17/02 A3021 RMK AO2
K82V 221755Z AUTO 30024G32KT 10SM CLR 16/02 A3021 RMK AO2
K82V 221735Z AUTO 30023G29KT 10SM CLR 16/02 A3022 RMK AO2
K82V 221715Z AUTO 29022G34KT 10SM CLR 15/02 A3022 RMK AO2
K82V 221655Z AUTO 28017G23KT 10SM CLR 13/02 A3022 RMK AO2
K82V 221635Z AUTO 28016G21KT 10SM CLR 13/02 A3022 RMK AO2
K82V 221615Z AUTO 10SM CLR 10/03 A3022 RMK AO2
K82V 221555Z AUTO 10SM CLR 05/02 A3022 RMK AO2
K82V 221535Z AUTO 10SM CLR 04/01 A3022 RMK AO2
K82V 221515Z AUTO 10SM CLR 02/01 A3022 RMK AO2
K82V 221455Z AUTO 10SM CLR 02/00 A3022 RMK AO2
K82V 221435Z AUTO 7SM CLR 01/00 A3022 RMK AO2
K82V 221415Z AUTO 7SM SCT095 00/00 A3022 RMK AO2
K82V 221355Z AUTO 10SM SCT095 00/00 A3021 RMK AO2
K82V 221335Z AUTO 10SM CLR 01/00 A3021 RMK AO2
K82V 221315Z AUTO 10SM CLR 01/00 A3021 RMK AO2
K82V 221255Z AUTO 10SM CLR 01/00 A3020 RMK AO2
K82V 221235Z AUTO 10SM CLR 00/00 A3021 RMK AO2
K82V 221215Z AUTO 10SM CLR 00/00 A3021 RMK AO2
K82V 221155Z AUTO 10SM CLR 00/00 A3021 RMK AO2
K82V 221135Z AUTO 10SM CLR 01/00 A3021 RMK AO2
K82V 221115Z AUTO 10SM CLR 01/00 A3020 RMK AO2
K82V 221055Z AUTO 10SM CLR 01/00 A3021 RMK AO2
K82V 221035Z AUTO 10SM CLR 01/00 A3021 RMK AO2
K82V 221015Z AUTO 10SM CLR 00/00 A3022 RMK AO2
K82V 220955Z AUTO 10SM CLR 00/00 A3022 RMK AO2
K82V 220935Z AUTO 10SM CLR 00/00 A3022 RMK AO2
K82V 220915Z AUTO 10SM CLR 00/00 A3022 RMK AO2
K82V 220855Z AUTO 10SM SCT120 00/00 A3021 RMK AO2
K82V 220835Z AUTO 10SM SCT120 00/00 A3022 RMK AO2
K82V 220815Z AUTO 10SM CLR 00/00 A3023 RMK AO2
K82V 220755Z AUTO 10SM CLR 00/00 A3023 RMK AO2
K82V 220735Z AUTO 10SM CLR 00/00 A3023 RMK AO2
K82V 220715Z AUTO 10SM CLR 00/00 A3024 RMK AO2
K82V 220650Z AUTO 10SM CLR 00/00 A3025 RMK AO2
K82V 220635Z AUTO 10SM CLR 00/00 A3025 RMK AO2
K82V 220615Z AUTO 10SM CLR 00/00 A3026 RMK AO2
K82V 220555Z AUTO 10SM CLR 00/00 A3026 RMK AO2
K82V 220535Z AUTO 10SM CLR 00/00 A3026 RMK AO2
K82V 220515Z AUTO 10SM CLR 00/00 A3026 RMK AO2
K82V 220455Z AUTO 10SM CLR 00/00 A3026 RMK AO2